Tiempo atmosférico en la estación meteorológica de Cala, Huelva (618 m.)



Fecha
DESCASC
Temp. máxima en grados centígrados (hora)
DESCASC
Temp. mínima en grados centígrados (hora)
DESCASC
Temp. media en grados centígrados
DESCASC
Racha de viento máxima en m/sg (hora)
DESCASC
Velocidad máxima media en intervalos de 10 minutos(hora)
DESCASC
Precipitaciones diarias en mm
DESCASC
Precipitaciones de 00:00 a 06:00 en mm
DESCASC
Precipitaciones de 06:00 a 12:00 en mm
DESCASC
Precipitaciones de 12:00 a 18:00 en mm
DESCASC
Precipitaciones de 18:00 a 24:00 en mm
DESCASC
18-04-2019 18.2 (14:00) 8 (04:40) 13.1 6.39 (19:50) 3.61 (23:20) 15.6 0 3.4 9.2 3
17-04-2019 17.9 (12:40) 7.6 (07:20) 12.7 10.28 (17:50) 5.28 (17:50) 1.2 0 0 0 1.2
16-04-2019 22.8 (15:00) 6.3 (00:00) 14.5 7.22 (16:40) 2.78 (00:20) 0 0 0 0 0
15-04-2019 23 (14:00) 11 (00:00) 17 9.17 (16:00) 5.28 (16:00) 0 0 0 0 0
14-04-2019 25.6 (15:20) 10.2 (00:00) 17.9 6.11 (14:40) 2.78 (14:40) 0 0 0 0 0
13-04-2019 23.4 (14:10) 7.2 (00:00) 15.3 6.94 (16:40) 3.06 (16:50) 0 0 0 0 0
12-04-2019 21.5 (14:10) 4.9 (00:00) 13.2 6.67 (18:40) 3.33 (14:50) 0 0 0 0 0
11-04-2019 18.9 (14:00) 5.1 (00:00) 12 7.5 (18:50) 4.17 (00:20) 0 0 0 0 0
10-04-2019 15.9 (15:40) 6.3 (00:00) 11.1 10.56 (17:20) 5.56 (15:30) 0.2 0 0 0.2 0
09-04-2019 14.4 (14:20) 6.7 (00:00) 10.5 13.89 (14:30) 5.56 (14:30) 5.8 0 3 0.8 2
08-04-2019 15.1 (16:00) 8.9 (00:00) 12 10 (18:20) 4.72 (18:30) 11.8 1.4 10.4 0 0
07-04-2019 12.1 (12:40) 6.5 (00:00) 9.3 8.33 (03:40) 3.61 (11:20) 6.2 0.2 0.2 1.6 4.2
06-04-2019 13.5 (15:10) 5.4 (00:00) 9.5 12.22 (16:10) 5.56 (16:20) 5.6 0 3.2 2 0.4
05-04-2019 11.7 (15:20) 5.9 (00:00) 8.8 12.22 (17:30) 6.39 (18:40) 5 3 1.2 0.2 0.6
04-04-2019 17.3 (15:10) 3.1 (00:00) 10.2 8.89 (01:10) 5 (01:10) 0 0 0 0 0
03-04-2019 19.4 (14:40) 7.4 (00:00) 13.4 9.44 (18:10) 5 (16:30) 0 0 0 0 0
02-04-2019 20.5 (14:50) 5.7 (00:00) 13.1 5 (18:30) 2.78 (19:40) 0 0 0 0 0
01-04-2019 18.8 (15:00) 9.2 (00:00) 14 6.67 (16:00) 2.78 (16:00) 1.8 0 0 1.4 0.4
31-03-2019 17.7 (12:50) 8.2 (00:00) 13 3.89 (17:10) 2.22 (16:10) 1 0 0 1 0
30-03-2019 21.4 (16:20) 7 (00:00) 14.2 6.11 (10:00) 2.78 (09:50) 0 0 0 0 0
29-03-2019 20.1 (14:10) 5 (00:00) 12.6 8.33 (09:50) 3.61 (09:50) 0 0 0 0 0
28-03-2019 18 (14:30) 3.6 (00:00) 10.8 9.17 (11:20) 4.44 (12:10) 0 0 0 0 0
27-03-2019 20.4 (17:00) 6.8 (00:00) 13.6 9.17 (16:50) 3.61 (11:00) 0 0 0 0 0
26-03-2019 22.8 (14:30) 8.8 (00:00) 15.8 10.28 (13:50) 4.44 (11:40) 0 0 0 0 0
25-03-2019 21.6 (14:40) 6.3 (00:00) 14 10.28 (15:40) 4.72 (15:50) 0 0 0 0 0
24-03-2019 19.7 (17:00) 6.7 (00:00) 13.2 10.83 (13:50) 5.28 (13:50) 0 0 0 0 0
23-03-2019 19.9 (14:10) 4.6 (00:00) 12.2 10.56 (10:30) 5.56 (10:30) 0 0 0 0 0
22-03-2019 19 (16:40) 2.2 (00:00) 10.6 7.5 (16:10) 2.78 (13:20) 0 0 0 0 0
21-03-2019 17 (17:00) 2.8 (00:00) 9.9 9.17 (13:30) 4.44 (13:10) 0 0 0 0 0

Gráficas

Temp. máximas Temp. mínimas Temp. medias Precipitaciones Rachas de viento máximas Velocidades máximas media en intervalos de 10 minutos

Datos horarios

Fecha y hora oficial Temperatura (ºC) Velocidad del viento (km/h) Dirección del viento Racha (km/h) Dirección de racha Precipitación (mm) Presión (hPa) Tendencia (hPa) Humedad (%)
2019-04-19 23:00:00 9.4 2 Este 10 Este 0 -- -- 93
2019-04-19 22:00:00 9.8 0 Calma 8 Norte 0 -- -- 92
2019-04-19 21:00:00 10.2 4 Noroeste 14 Este 2.2 -- -- 92
2019-04-19 20:00:00 11.1 9 Nordeste 21 Nordeste 1.2 -- -- 88
2019-04-19 19:00:00 13.1 6 Norte 16 Oeste 0 -- -- 84
2019-04-19 18:00:00 12.9 6 Noroeste 14 Noroeste 0.4 -- -- 83
2019-04-19 17:00:00 14.8 8 Noroeste 17 Oeste 0.6 -- -- 76
2019-04-19 16:00:00 15 7 Sudoeste 20 Oeste 0 -- -- 72
2019-04-19 15:00:00 14.9 9 Noroeste 18 Oeste 0 -- -- 72
2019-04-19 14:00:00 15.8 5 Oeste 20 Oeste 0.2 -- -- 66
2019-04-19 13:00:00 14.7 6 Este 15 Este 0 -- -- 69
2019-04-19 12:00:00 14.5 3 Sudeste 11 Oeste 0 -- -- 81
2019-04-19 11:00:00 11.2 5 Noroeste 9 Norte 0 -- -- 90
2019-04-19 10:00:00 9.2 4 Noroeste 9 Noroeste 0.4 -- -- 97
2019-04-19 09:00:00 8.7 2 Noroeste 9 Sudoeste 0.6 -- -- 96
2019-04-19 08:00:00 8.6 0 Calma 8 Noroeste 3 -- -- 96
2019-04-19 07:00:00 8.5 5 Oeste 15 Oeste 0.2 -- -- 96
2019-04-19 06:00:00 8.4 5 Noroeste 13 Oeste 0.2 -- -- 96
2019-04-19 05:00:00 8.2 3 Noroeste 12 Noroeste 0 -- -- 95
2019-04-19 04:00:00 8.1 5 Oeste 14 Oeste 0 -- -- 96
2019-04-19 03:00:00 7.9 5 Noroeste 13 Oeste 0 -- -- 96
2019-04-19 02:00:00 8.1 6 Noroeste 17 Oeste 0 -- -- 95
2019-04-19 01:00:00 8.2 9 Oeste 19 Noroeste 0 -- -- 92
2019-04-19 00:00:00 8.3 9 Noroeste 23 Noroeste 0.2 -- -- 92
2019-04-18 23:00:00 8.4 9 Oeste 17 Oeste 0 -- -- 94
2019-04-18 22:00:00 8.1 9 Oeste 14 Oeste 0 -- -- 94
2019-04-18 21:00:00 8.4 8 Oeste 17 Oeste 0.2 -- -- 94
2019-04-18 20:00:00 8.6 12 Oeste 23 Oeste 1.4 -- -- 93
2019-04-18 19:00:00 9.2 3 Noroeste 21 Oeste 1.2 -- -- 93
2019-04-18 18:00:00 9.5 8 Oeste 20 Sudoeste 7 -- -- 88
2019-04-18 17:00:00 11.7 3 Sudeste 15 Este 0 -- -- 80
2019-04-18 16:00:00 11.7 0 Calma 16 Sudoeste 0.2 -- -- 80
2019-04-18 15:00:00 14.3 8 Oeste 20 Oeste 2 -- -- 77
2019-04-18 14:00:00 18.2 4 Noroeste 16 Sudoeste 0 -- -- 50
2019-04-18 13:00:00 14.7 4 Oeste 13 Oeste 0 -- -- 79
2019-04-18 12:00:00 11.3 6 Oeste 14 Sudoeste 0 -- -- 86
2019-04-18 11:00:00 9.4 3 Noroeste 14 Noroeste 0.2 -- -- 95
2019-04-18 10:00:00 9.1 3 Sudoeste 15 Sudoeste 2.6 -- -- 91
2019-04-18 09:00:00 9.4 2 Sur 7 Sudoeste 0.4 -- -- 96
2019-04-18 08:00:00 8.9 0 Calma 4 Sudeste 0.2 -- -- 96
2019-04-18 07:00:00 8.6 0 Calma 4 Sudoeste 0 -- -- 95
2019-04-18 06:00:00 8.6 2 Oeste 4 Oeste 0 -- -- 95
2019-04-18 05:00:00 8.2 0 Calma 8 Noroeste 0 -- -- 95
2019-04-18 04:00:00 8.6 0 Calma 4 Sudoeste 0 -- -- 91
2019-04-18 03:00:00 9.5 0 Calma 12 Sudoeste 0 -- -- 90
2019-04-18 02:00:00 9.7 3 Oeste 9 Oeste 0 -- -- 91
2019-04-18 01:00:00 9.8 0 Calma 9 Sudoeste 0 -- -- 89
2019-04-18 00:00:00 9.9 4 Sur 20 Sudoeste 0 -- -- 90
2019-04-17 23:00:00 10.1 3 Sur 11 Sur 0 -- -- 87
2019-04-17 22:00:00 10.2 3 Sur 12 Sudoeste 0.4 -- -- 88
2019-04-17 21:00:00 10.9 4 Sur 13 Sudoeste 0.8 -- -- 87
2019-04-17 20:00:00 11.5 3 Sudoeste 14 Sudoeste 0 -- -- 84
2019-04-17 19:00:00 11.8 6 Sudoeste 19 Oeste 0 -- -- 81
2019-04-17 18:00:00 13.3 11 Oeste 37 Sudoeste 0 -- -- 78
2019-04-17 17:00:00 16.7 10 Sur 30 Sur 0 -- -- 64
2019-04-17 16:00:00 17.3 13 Sur 33 Sudoeste 0 -- -- 59
2019-04-17 15:00:00 17.4 14 Sur 33 Sudoeste 0 -- -- 60
2019-04-17 14:00:00 17.7 12 Sur 35 Sur 0 -- -- 61
2019-04-17 13:00:00 17.6 14 Sur 34 Sudoeste 0 -- -- 59
2019-04-17 12:00:00 17 8 Sur 22 Sudoeste 0 -- -- 58
2019-04-17 11:00:00 14.9 4 Sur 15 Sudoeste 0 -- -- 62
2019-04-17 10:00:00 11 0 Calma 5 Este 0 -- -- 79
2019-04-17 09:00:00 8.4 2 Noroeste 3 Noroeste 0 -- -- 92
2019-04-17 08:00:00 7.7 0 Calma 2 Oeste 0 -- -- 89
2019-04-17 07:00:00 7.8 0 Calma 3 Noroeste 0 -- -- 85
2019-04-17 06:00:00 8.3 0 Calma 5 Noroeste 0 -- -- 83
2019-04-17 05:00:00 9.5 2 Noroeste 3 Sudeste 0 -- -- 77
2019-04-17 04:00:00 11 2 Sudeste 9 Sudeste 0 -- -- 72
2019-04-17 03:00:00 11.8 3 Sur 13 Sur 0 -- -- 68
2019-04-17 02:00:00 12.3 4 Sur 13 Sur 0 -- -- 64
2019-04-17 01:00:00 13.1 2 Sur 13 Oeste 0 -- -- 60
2019-04-17 00:00:00 14.2 0 Calma 19 Sudoeste 0 -- -- 58
2019-04-16 23:00:00 15.2 3 Sudoeste 17 Sudoeste 0 -- -- 52
2019-04-16 22:00:00 15.8 4 Sur 15 Sudeste 0 -- -- 51
2019-04-16 21:00:00 17.2 3 Sudeste 17 Sudeste 0 -- -- 48
2019-04-16 20:00:00 19.2 5 Sur 19 Sur 0 -- -- 41
2019-04-16 19:00:00 21.6 7 Sur 21 Sudoeste 0 -- -- 35
2019-04-16 18:00:00 22.6 6 Sur 22 Sudeste 0 -- -- 34
2019-04-16 17:00:00 22 6 Sur 26 Sudeste 0 -- -- 40
2019-04-16 16:00:00 22 6 Sudeste 23 Este 0 -- -- 39
2019-04-16 15:00:00 22.8 5 Sudeste 21 Este 0 -- -- 41
2019-04-16 14:00:00 21.5 7 Sudeste 23 Este 0 -- -- 45
2019-04-16 13:00:00 20.7 8 Sudeste 21 Sudeste 0 -- -- 48
2019-04-16 12:00:00 19.4 7 Sudeste 24 Sudeste 0 -- -- 52
2019-04-16 11:00:00 16.1 5 Sudeste 15 Este 0 -- -- 64
2019-04-16 10:00:00 10.7 2 Este 7 Este 0 -- -- 88
2019-04-16 09:00:00 7.8 0 Calma 2 Sur 0 -- -- 98
2019-04-16 08:00:00 6.3 0 Calma 2 Sudoeste 0 -- -- 94
2019-04-16 07:00:00 6.5 0 Calma 2 Oeste 0 -- -- 92
2019-04-16 06:00:00 7 0 Calma 2 Oeste 0 -- -- 91
2019-04-16 05:00:00 7.7 0 Calma 5 Noroeste 0 -- -- 92
2019-04-16 04:00:00 8.8 0 Calma 14 Noroeste 0 -- -- 85
2019-04-16 03:00:00 9.8 6 Noroeste 14 Oeste 0 -- -- 88
2019-04-16 02:00:00 10.3 5 Noroeste 12 Oeste 0 -- -- 83
2019-04-16 01:00:00 11.1 5 Noroeste 18 Oeste 0 -- -- 77
2019-04-16 00:00:00 11.7 7 Noroeste 13 Noroeste 0 -- -- 75
2019-04-15 23:00:00 12.8 7 Oeste 16 Oeste 0 -- -- 71
2019-04-15 22:00:00 13.8 5 Oeste 15 Noroeste 0 -- -- 67
2019-04-15 21:00:00 15.3 6 Noroeste 16 Oeste 0 -- -- 61
2019-04-15 20:00:00 17.1 10 Oeste 25 Noroeste 0 -- -- 56
2019-04-15 19:00:00 18.3 14 Noroeste 27 Noroeste 0 -- -- 59
2019-04-15 18:00:00 18.7 16 Noroeste 28 Oeste 0 -- -- 59
2019-04-15 17:00:00 19.5 16 Noroeste 31 Oeste 0 -- -- 52
2019-04-15 16:00:00 21.2 19 Noroeste 33 Noroeste 0 -- -- 42
2019-04-15 15:00:00 22.1 13 Noroeste 27 Oeste 0 -- -- 41
2019-04-15 14:00:00 23 10 Noroeste 22 Oeste 0 -- -- 46
2019-04-15 13:00:00 22.4 10 Oeste 24 Noroeste 0 -- -- 48
2019-04-15 12:00:00 21.1 8 Oeste 18 Oeste 0 -- -- 45
2019-04-15 11:00:00 17.7 9 Oeste 21 Oeste 0 -- -- 59
2019-04-15 10:00:00 14.4 11 Sudoeste 24 Oeste 0 -- -- 73
2019-04-15 09:00:00 12.6 5 Sudoeste 19 Sudoeste 0 -- -- 85
2019-04-15 08:00:00 11.4 0 Calma 3 Sudoeste 0 -- -- 92
2019-04-15 07:00:00 11.1 0 Calma 2 Noroeste 0 -- -- 90
2019-04-15 06:00:00 11.5 0 Calma 3 Noroeste 0 -- -- 89
2019-04-15 05:00:00 12 0 Calma 2 Noroeste 0 -- -- 88
2019-04-15 04:00:00 12.7 0 Calma 2 Norte 0 -- -- 85
2019-04-15 03:00:00 13.1 0 Calma 2 Norte 0 -- -- 83
2019-04-15 02:00:00 13.9 0 Calma 3 Oeste 0 -- -- 81
2019-04-15 01:00:00 14.8 0 Calma 3 Noroeste 0 -- -- 78
2019-04-15 00:00:00 16.2 0 Calma 3 Noroeste 0 -- -- 72
2019-04-14 23:00:00 17.8 0 Calma 13 Sudoeste 0 -- -- 65
2019-04-14 22:00:00 19 3 Sur 15 Sudoeste 0 -- -- 61
2019-04-14 21:00:00 20.6 5 Sudoeste 10 Sudoeste 0 -- -- 57
2019-04-14 20:00:00 22.9 5 Sur 12 Sudoeste 0 -- -- 49
2019-04-14 19:00:00 24.2 0 Calma 14 Oeste 0 -- -- 43
2019-04-14 18:00:00 24.2 8 Noroeste 14 Oeste 0 -- -- 43
2019-04-14 17:00:00 24.6 5 Oeste 16 Sudoeste 0 -- -- 45
2019-04-14 16:00:00 24.5 6 Sudoeste 17 Sudoeste 0 -- -- 47
2019-04-14 15:00:00 24.8 7 Oeste 22 Noroeste 0 -- -- 46
2019-04-14 14:00:00 24.7 5 Sudoeste 16 Noroeste 0 -- -- 49
2019-04-14 13:00:00 24.2 5 Oeste 17 Sudoeste 0 -- -- 47
2019-04-14 12:00:00 21.6 5 Sudeste 10 Este 0 -- -- 60
2019-04-14 11:00:00 18.3 3 Sur 6 Este 0 -- -- 68
2019-04-14 10:00:00 12.6 3 Norte 8 Norte 0 -- -- 92
2019-04-14 09:00:00 10.6 0 Calma 4 Este 0 -- -- 94
2019-04-14 08:00:00 10.3 2 Noroeste 9 Oeste 0 -- -- 91
2019-04-14 07:00:00 10.6 0 Calma 9 Noroeste 0 -- -- 91
2019-04-14 06:00:00 11.1 4 Noroeste 10 Oeste 0 -- -- 90
2019-04-14 05:00:00 11.6 3 Oeste 15 Noroeste 0 -- -- 88
2019-04-14 04:00:00 12 3 Noroeste 12 Oeste 0 -- -- 87
2019-04-14 03:00:00 12.5 4 Oeste 13 Oeste 0 -- -- 82
2019-04-14 02:00:00 13.3 3 Noroeste 14 Noroeste 0 -- -- 76
2019-04-14 01:00:00 13.4 6 Oeste 13 Noroeste 0 -- -- 68
2019-04-14 00:00:00 13.8 5 Oeste 12 Noroeste 0 -- -- 54
2019-04-13 23:00:00 14.6 6 Oeste 14 Oeste 0 -- -- 51
2019-04-13 22:00:00 15.8 7 Noroeste 18 Noroeste 0 -- -- 46
2019-04-13 21:00:00 17.7 7 Noroeste 21 Noroeste 0 -- -- 44
2019-04-13 20:00:00 20 10 Noroeste 20 Noroeste 0 -- -- 39
2019-04-13 19:00:00 21.6 9 Noroeste 21 Noroeste 0 -- -- 38
2019-04-13 18:00:00 22.1 9 Noroeste 20 Noroeste 0 -- -- 36
2019-04-13 17:00:00 22.7 8 Noroeste 25 Noroeste 0 -- -- 32
2019-04-13 16:00:00 22.6 10 Oeste 17 Noroeste 0 -- -- 33
2019-04-13 15:00:00 22.8 8 Oeste 18 Noroeste 0 -- -- 34
2019-04-13 14:00:00 23 5 Sur 18 Oeste 0 -- -- 33
2019-04-13 13:00:00 22.4 5 Noroeste 19 Oeste 0 -- -- 34
2019-04-13 12:00:00 20.9 5 Sudoeste 15 Noroeste 0 -- -- 37
2019-04-13 11:00:00 17.8 4 Oeste 11 Noroeste 0 -- -- 43
2019-04-13 10:00:00 13.8 3 Noroeste 12 Nordeste 0 -- -- 63
2019-04-13 09:00:00 8.9 4 Noroeste 13 Norte 0 -- -- 83
2019-04-13 08:00:00 7.3 5 Noroeste 6 Oeste 0 -- -- 84
2019-04-13 07:00:00 7.4 3 Noroeste 4 Noroeste 0 -- -- 78
2019-04-13 06:00:00 8 2 Noroeste 7 Oeste 0 -- -- 70
2019-04-13 05:00:00 9 3 Noroeste 11 Oeste 0 -- -- 65
2019-04-13 04:00:00 10.1 6 Oeste 15 Oeste 0 -- -- 60
2019-04-13 03:00:00 8.8 4 Noroeste 7 Noroeste 0 -- -- 66
2019-04-13 02:00:00 9.8 2 Oeste 8 Oeste 0 -- -- 62
2019-04-13 01:00:00 10.4 2 Noroeste 9 Oeste 0 -- -- 58
2019-04-13 00:00:00 11.6 5 Noroeste 13 Noroeste 0 -- -- 52
2019-04-12 23:00:00 12.5 6 Noroeste 13 Noroeste 0 -- -- 51
2019-04-12 22:00:00 13.4 7 Noroeste 12 Oeste 0 -- -- 50
2019-04-12 21:00:00 15.8 4 Noroeste 15 Noroeste 0 -- -- 46
2019-04-12 20:00:00 18.3 9 Noroeste 19 Noroeste 0 -- -- 36
2019-04-12 19:00:00 19.9 8 Noroeste 24 Noroeste 0 -- -- 34
2019-04-12 18:00:00 20.3 6 Noroeste 19 Oeste 0 -- -- 36
2019-04-12 17:00:00 19.9 4 Noroeste 22 Oeste 0 -- -- 34
2019-04-12 16:00:00 19.8 8 Noroeste 24 Noroeste 0 -- -- 33
2019-04-12 15:00:00 20.1 6 Noroeste 19 Noroeste 0 -- -- 33
2019-04-12 14:00:00 21.2 4 Noroeste 20 Norte 0 -- -- 34
2019-04-12 13:00:00 20 9 Oeste 20 Noroeste 0 -- -- 34
2019-04-12 12:00:00 19.2 8 Norte 18 Norte 0 -- -- 35
2019-04-12 11:00:00 16.1 8 Norte 21 Noroeste 0 -- -- 41
2019-04-12 10:00:00 10.5 0 Calma 4 Este 0 -- -- 55
2019-04-12 09:00:00 6.4 0 Calma 6 Oeste 0 -- -- 78
2019-04-12 08:00:00 4.9 5 Noroeste 6 Noroeste 0 -- -- 83
2019-04-12 07:00:00 5.2 2 Oeste 5 Noroeste 0 -- -- 82
2019-04-12 06:00:00 6 2 Noroeste 7 Noroeste 0 -- -- 81
2019-04-12 05:00:00 7 5 Noroeste 10 Noroeste 0 -- -- 81
2019-04-12 04:00:00 8.1 4 Noroeste 11 Noroeste 0 -- -- 76
2019-04-12 03:00:00 8.7 4 Noroeste 10 Noroeste 0 -- -- 74
2019-04-12 02:00:00 9.7 6 Noroeste 14 Noroeste 0 -- -- 71
2019-04-12 01:00:00 9.9 7 Noroeste 14 Noroeste 0 -- -- 68
2019-04-12 00:00:00 10.2 8 Noroeste 16 Noroeste 0 -- -- 65
2019-04-11 23:00:00 10.5 2 Noroeste 10 Noroeste 0 -- -- 64
2019-04-11 22:00:00 11.6 6 Noroeste 10 Noroeste 0 -- -- 58
2019-04-11 21:00:00 13.9 2 Noroeste 12 Norte 0 -- -- 54
2019-04-11 20:00:00 15.9 6 Norte 22 Norte 0 -- -- 42
2019-04-11 19:00:00 17.6 10 Norte 27 Noroeste 0 -- -- 38
2019-04-11 18:00:00 17.9 9 Norte 22 Noroeste 0 -- -- 38
2019-04-11 17:00:00 18.1 11 Norte 24 Norte 0 -- -- 40
2019-04-11 16:00:00 17.8 11 Noroeste 25 Noroeste 0 -- -- 43
2019-04-11 15:00:00 17.2 7 Norte 21 Noroeste 0 -- -- 43
2019-04-11 14:00:00 18.9 8 Noroeste 21 Norte 0 -- -- 43
2019-04-11 13:00:00 17.8 6 Nordeste 15 Nordeste 0 -- -- 45
2019-04-11 12:00:00 17.1 4 Norte 14 Noroeste 0 -- -- 46
2019-04-11 11:00:00 13.4 4 Norte 16 Norte 0 -- -- 63
2019-04-11 10:00:00 8.8 9 Norte 19 Norte 0 -- -- 80
2019-04-11 09:00:00 6.1 0 Calma 6 Oeste 0 -- -- 92
2019-04-11 08:00:00 5.8 5 Noroeste 9 Noroeste 0 -- -- 92
2019-04-11 07:00:00 5.2 3 Noroeste 9 Noroeste 0 -- -- 91
2019-04-11 06:00:00 5.9 0 Calma 11 Oeste 0 -- -- 88
2019-04-11 05:00:00 6.6 5 Oeste 13 Oeste 0 -- -- 88
2019-04-11 04:00:00 7.1 3 Sudoeste 15 Oeste 0 -- -- 85
2019-04-11 03:00:00 7.8 6 Noroeste 17 Noroeste 0 -- -- 82
2019-04-11 02:00:00 8.4 11 Noroeste 25 Noroeste 0 -- -- 80
2019-04-11 01:00:00 9.1 14 Noroeste 27 Norte 0 -- -- 78
2019-04-11 00:00:00 9.8 13 Noroeste 27 Noroeste 0 -- -- 74
2019-04-10 23:00:00 10.3 10 Noroeste 17 Oeste 0 -- -- 70
2019-04-10 22:00:00 11.1 9 Noroeste 19 Noroeste 0 -- -- 63
2019-04-10 21:00:00 12.5 12 Noroeste 28 Noroeste 0 -- -- 57
2019-04-10 20:00:00 14.1 13 Noroeste 30 Noroeste 0 -- -- 51
2019-04-10 19:00:00 15 12 Norte 30 Oeste 0 -- -- 49
2019-04-10 18:00:00 15.9 18 Noroeste 38 Noroeste 0 -- -- 47
2019-04-10 17:00:00 14.8 17 Noroeste 37 Noroeste 0 -- -- 51
2019-04-10 16:00:00 15.4 14 Noroeste 37 Norte 0 -- -- 48
2019-04-10 15:00:00 15.2 17 Noroeste 31 Norte 0.2 -- -- 51
2019-04-10 14:00:00 14.9 13 Norte 31 Noroeste 0 -- -- 51
2019-04-10 13:00:00 14.5 13 Norte 28 Norte 0 -- -- 54
2019-04-10 12:00:00 12.9 17 Noroeste 28 Noroeste 0 -- -- 59
2019-04-10 11:00:00 10.9 11 Noroeste 27 Noroeste 0 -- -- 69
2019-04-10 10:00:00 8 10 Noroeste 26 Noroeste 0 -- -- 83
2019-04-10 09:00:00 6.7 17 Noroeste 30 Norte 0 -- -- 87
2019-04-10 08:00:00 6.5 10 Noroeste 22 Noroeste 0 -- -- 89
2019-04-10 07:00:00 6.5 10 Noroeste 22 Noroeste 0 -- -- 89
2019-04-10 06:00:00 6.9 12 Noroeste 30 Noroeste 0 -- -- 90
2019-04-10 05:00:00 6.8 10 Noroeste 20 Oeste 0 -- -- 94
2019-04-10 04:00:00 6.5 7 Noroeste 22 Noroeste 0 -- -- 92
2019-04-10 03:00:00 6.9 11 Noroeste 31 Oeste 0 -- -- 91
2019-04-10 02:00:00 7.2 17 Noroeste 30 Noroeste 0 -- -- 91
2019-04-10 01:00:00 7.8 11 Noroeste 26 Noroeste 0 -- -- 91
2019-04-10 00:00:00 8.5 10 Noroeste 20 Oeste 0 -- -- 92
2019-04-09 23:00:00 9 8 Noroeste 22 Oeste 0 -- -- 93
2019-04-09 22:00:00 -- 8 Oeste 22 Oeste 1.2 -- -- --
2019-04-09 21:00:00 10.8 8 Noroeste 23 Oeste 0.6 -- -- 84
2019-04-09 20:00:00 11.9 14 Oeste 26 Oeste 0.2 -- -- 73
2019-04-09 19:00:00 12.4 8 Noroeste 30 Oeste 0 -- -- 73
2019-04-09 18:00:00 12.1 10 Oeste 39 Noroeste 0.2 -- -- 78
2019-04-09 17:00:00 12.7 12 Oeste 35 Oeste 0.4 -- -- 81
2019-04-09 16:00:00 13.1 17 Noroeste 37 Noroeste 0 -- -- 68
2019-04-09 15:00:00 13 10 Noroeste 50 Noroeste 0 -- -- 71
2019-04-09 14:00:00 14 15 Oeste 35 Sudoeste 0 -- -- 69
2019-04-09 13:00:00 12.4 13 Oeste 27 Noroeste 0.2 -- -- 79
2019-04-09 12:00:00 10.2 13 Noroeste 28 Noroeste 2.2 -- -- 83
2019-04-09 11:00:00 12 12 Oeste 31 Oeste 0 -- -- 73
2019-04-09 10:00:00 8.6 10 Noroeste 23 Noroeste 0 -- -- 89
2019-04-09 09:00:00 7.8 7 Oeste 22 Sudoeste 0.4 -- -- 95
2019-04-09 08:00:00 7.5 4 Sudoeste 13 Oeste 0.4 -- -- 94
2019-04-09 07:00:00 7.1 6 Oeste 20 Sudoeste 0 -- -- 91
2019-04-09 06:00:00 7.4 8 Oeste 22 Oeste 0 -- -- 91
2019-04-09 05:00:00 7.3 7 Oeste 16 Oeste 0 -- -- 94
2019-04-09 04:00:00 6.7 0 Calma 18 Oeste 0 -- -- 91
2019-04-09 03:00:00 7 7 Oeste 20 Oeste 0 -- -- 91
2019-04-09 02:00:00 7.5 8 Oeste 18 Oeste 0 -- -- 88
2019-04-09 01:00:00 8 10 Oeste 23 Oeste 0 -- -- 84
2019-04-09 00:00:00 8.9 9 Noroeste 24 Noroeste 0 -- -- 80
2019-04-08 23:00:00 9.5 9 Noroeste 22 Oeste 0 -- -- 77
2019-04-08 22:00:00 10.5 10 Oeste 28 Noroeste 0 -- -- 71
2019-04-08 21:00:00 11.7 10 Oeste 27 Noroeste 0 -- -- 61
2019-04-08 20:00:00 13.5 14 Oeste 33 Oeste 0 -- -- 54
2019-04-08 19:00:00 14.7 14 Noroeste 36 Oeste 0 -- -- 58
2019-04-08 18:00:00 14.3 13 Oeste 32 Sudoeste 0 -- -- 66
2019-04-08 17:00:00 14.6 11 Sudoeste 27 Sudoeste 0 -- -- 69
2019-04-08 16:00:00 15.1 8 Sudoeste 23 Noroeste 0 -- -- 67
2019-04-08 15:00:00 14.7 8 Oeste 23 Oeste 0 -- -- 71
2019-04-08 14:00:00 13.9 8 Oeste 15 Noroeste 0 -- -- 82
2019-04-08 13:00:00 12.9 9 Noroeste 19 Oeste 0 -- -- 88
2019-04-08 12:00:00 11.3 9 Noroeste 17 Noroeste 0.4 -- -- 93
2019-04-08 11:00:00 11 9 Noroeste 17 Sudoeste 1 -- -- 95
2019-04-08 10:00:00 10.6 5 Sudoeste 19 Sur 4.2 -- -- 97
2019-04-08 09:00:00 10.1 4 Sudoeste 21 Sudoeste 4.2 -- -- 97
2019-04-08 08:00:00 10 7 Sudoeste 18 Sur 0.4 -- -- 96
2019-04-08 07:00:00 9.7 6 Sudoeste 17 Sudoeste 0.2 -- -- 96
2019-04-08 06:00:00 9.6 7 Sudoeste 18 Oeste 0.4 -- -- 95
2019-04-08 05:00:00 9.4 8 Oeste 21 Sudoeste 0.2 -- -- 94
2019-04-08 04:00:00 9.4 8 Oeste 19 Oeste 0 -- -- 94
2019-04-08 03:00:00 9.8 8 Oeste 21 Sudoeste 0 -- -- 94
2019-04-08 02:00:00 10.2 8 Oeste 21 Oeste 0 -- -- 95
2019-04-08 01:00:00 10.4 6 Oeste 28 Oeste 0.8 -- -- 96
2019-04-08 00:00:00 10.3 4 Sudoeste 14 Sudoeste 0.6 -- -- 96
2019-04-07 23:00:00 10.1 6 Sudoeste 17 Sudoeste 0 -- -- 94
2019-04-07 22:00:00 10.7 4 Noroeste 20 Oeste 0.2 -- -- 92
2019-04-07 21:00:00 11.3 5 Oeste 16 Noroeste 0.8 -- -- 94
2019-04-07 20:00:00 11.7 2 Sur 10 Sudoeste 1.4 -- -- 93
2019-04-07 19:00:00 11.9 3 Sur 12 Sudoeste 1.2 -- -- 93
2019-04-07 18:00:00 11.8 6 Sur 14 Sudoeste 0 -- -- 92
2019-04-07 17:00:00 11.2 5 Sur 18 Sudoeste 0 -- -- 90
2019-04-07 16:00:00 11.3 9 Sur 21 Sudoeste 0.6 -- -- 88
2019-04-07 15:00:00 11.6 8 Sur 18 Sudoeste 0.2 -- -- 86
2019-04-07 14:00:00 11.1 8 Sudoeste 23 Sudoeste 0.4 -- -- 87
2019-04-07 13:00:00 11.6 9 Sudoeste 21 Sudoeste 0.4 -- -- 82
2019-04-07 12:00:00 11.6 6 Oeste 27 Oeste 0 -- -- 76
2019-04-07 11:00:00 10.5 9 Oeste 22 Sudoeste 0 -- -- 83
2019-04-07 10:00:00 8.1 9 Sudoeste 21 Sudoeste 0 -- -- 91
2019-04-07 09:00:00 7 6 Oeste 19 Sudoeste 0 -- -- 94
2019-04-07 08:00:00 6.6 7 Oeste 20 Oeste 0 -- -- 93
2019-04-07 07:00:00 6.7 9 Oeste 23 Oeste 0.2 -- -- 92
2019-04-07 06:00:00 7 8 Oeste 18 Sudoeste 0.2 -- -- 91
2019-04-07 05:00:00 7 5 Oeste 19 Oeste 0 -- -- 90
2019-04-07 04:00:00 7.1 9 Oeste 30 Oeste 0 -- -- 89
2019-04-07 03:00:00 7 4 Oeste 24 Oeste 0 -- -- 91
2019-04-07 02:00:00 7 10 Oeste 29 Noroeste 0 -- -- 91
2019-04-07 01:00:00 7.2 8 Oeste 21 Oeste 0 -- -- 89
2019-04-07 00:00:00 7 9 Oeste 23 Oeste 0.2 -- -- 89
2019-04-06 23:00:00 7.1 12 Noroeste 27 Noroeste 0.2 -- -- 86
2019-04-06 22:00:00 7.6 9 Noroeste 35 Oeste 0 -- -- 80
2019-04-06 21:00:00 8.7 13 Noroeste 35 Sudoeste 0 -- -- 72
2019-04-06 20:00:00 9.5 9 Oeste 27 Noroeste 0 -- -- 72
2019-04-06 19:00:00 9.8 11 Oeste 35 Noroeste 0 -- -- 70
2019-04-06 18:00:00 10.8 12 Oeste 30 Oeste 0 -- -- 75
2019-04-06 17:00:00 8.5 10 Oeste 44 Oeste 1.8 -- -- 89
2019-04-06 16:00:00 11.2 8 Noroeste 31 Oeste 0 -- -- 70
2019-04-06 15:00:00 13.4 12 Oeste 36 Oeste 0 -- -- 64
2019-04-06 14:00:00 11.1 13 Oeste 31 Oeste 0 -- -- 69
2019-04-06 13:00:00 9.1 12 Noroeste 26 Noroeste 0.2 -- -- 87
2019-04-06 12:00:00 8.9 15 Oeste 33 Oeste 0.2 -- -- 88
2019-04-06 11:00:00 6.9 14 Noroeste 27 Noroeste 2.6 -- -- 87
2019-04-06 10:00:00 6.7 7 Oeste 17 Oeste 0 -- -- 89
2019-04-06 09:00:00 5.6 4 Noroeste 17 Oeste 0 -- -- 93
2019-04-06 08:00:00 5.7 6 Oeste 26 Oeste 0.4 -- -- 92
2019-04-06 07:00:00 5.8 8 Oeste 25 Sudoeste 0 -- -- 91
2019-04-06 06:00:00 5.6 9 Oeste 28 Sudoeste 0 -- -- 92
2019-04-06 05:00:00 5.9 12 Oeste 29 Oeste 0 -- -- 90
2019-04-06 04:00:00 6.3 10 Oeste 24 Oeste 0 -- -- 88
2019-04-06 03:00:00 6.3 12 Oeste 27 Oeste 0 -- -- 88
2019-04-06 02:00:00 6.3 12 Oeste 23 Oeste 0 -- -- 86
2019-04-06 01:00:00 6.2 12 Noroeste 32 Oeste 0 -- -- 87
2019-04-06 00:00:00 6.2 9 Oeste 25 Oeste 0 -- -- 88
2019-04-05 23:00:00 6 9 Noroeste 27 Noroeste 0 -- -- 89
2019-04-05 22:00:00 6.2 11 Noroeste 38 Oeste 0.2 -- -- 86
2019-04-05 21:00:00 7.1 10 Oeste 32 Oeste 0 -- -- 78
2019-04-05 20:00:00 7.8 13 Oeste 36 Noroeste 0.4 -- -- 77
2019-04-05 19:00:00 9.1 7 Oeste 44 Oeste 0 -- -- 74
2019-04-05 18:00:00 11.3 19 Oeste 44 Oeste 0 -- -- 51
2019-04-05 17:00:00 10.6 16 Noroeste 36 Oeste 0.2 -- -- 52
2019-04-05 16:00:00 10.6 14 Noroeste 33 Noroeste 0 -- -- 51
2019-04-05 15:00:00 11.1 16 Noroeste 35 Noroeste 0 -- -- 52
2019-04-05 14:00:00 10.1 17 Noroeste 40 Noroeste 0 -- -- 62
2019-04-05 13:00:00 9.3 19 Noroeste 39 Oeste 0 -- -- 66
2019-04-05 12:00:00 8 17 Noroeste 31 Noroeste 0 -- -- 75
2019-04-05 11:00:00 8 13 Noroeste 33 Oeste 0.8 -- -- 85
2019-04-05 10:00:00 7.6 7 Oeste 20 Sudoeste 0 -- -- 92
2019-04-05 09:00:00 6.8 4 Oeste 14 Sudoeste 0 -- -- 92
2019-04-05 08:00:00 6.9 0 Calma 26 Oeste 0.2 -- -- 92
2019-04-05 07:00:00 7.3 6 Sudoeste 24 Sudoeste 0.2 -- -- 93
2019-04-05 06:00:00 7.3 4 Sudoeste 21 Sudoeste 1.2 -- -- 93
2019-04-05 05:00:00 7.2 7 Sudoeste 17 Sudoeste 1.8 -- -- 92
2019-04-05 04:00:00 7 7 Sudoeste 21 Oeste 0 -- -- 86
2019-04-05 03:00:00 6.6 7 Sudoeste 26 Sudoeste 0 -- -- 77
2019-04-05 02:00:00 6.8 13 Oeste 25 Oeste 0 -- -- 70
2019-04-05 01:00:00 8 10 Oeste 27 Oeste 0 -- -- 68
2019-04-05 00:00:00 8.4 6 Noroeste 22 Oeste 0 -- -- 64
2019-04-04 23:00:00 9 13 Noroeste 23 Noroeste 0 -- -- 59
2019-04-04 22:00:00 10.1 3 Oeste 14 Oeste 0 -- -- 44
2019-04-04 21:00:00 11.6 5 Oeste 21 Noroeste 0 -- -- 39
2019-04-04 20:00:00 13.7 11 Noroeste 28 Oeste 0 -- -- 34
2019-04-04 19:00:00 15.8 12 Noroeste 26 Oeste 0 -- -- 29
2019-04-04 18:00:00 17 11 Noroeste 26 Noroeste 0 -- -- 26
2019-04-04 17:00:00 16.9 6 Oeste 27 Noroeste 0 -- -- 29
2019-04-04 16:00:00 16.8 9 Noroeste 21 Noroeste 0 -- -- 27
2019-04-04 15:00:00 17.2 6 Oeste 23 Noroeste 0 -- -- 28
2019-04-04 14:00:00 16.4 8 Norte 17 Noroeste 0 -- -- 28
2019-04-04 13:00:00 15.4 7 Noroeste 17 Noroeste 0 -- -- 32
2019-04-04 12:00:00 13.4 4 Nordeste 17 Nordeste 0 -- -- 39
2019-04-04 11:00:00 10.3 8 Norte 19 Nordeste 0 -- -- 43
2019-04-04 10:00:00 6.5 6 Norte 16 Noroeste 0 -- -- 49
2019-04-04 09:00:00 3.4 0 Calma 7 Sudeste 0 -- -- 64
2019-04-04 08:00:00 4.1 0 Calma 18 Noroeste 0 -- -- 62
2019-04-04 07:00:00 5.1 6 Noroeste 18 Noroeste 0 -- -- 54
2019-04-04 06:00:00 5.3 9 Noroeste 26 Norte 0 -- -- 59
2019-04-04 05:00:00 6.2 11 Norte 22 Norte 0 -- -- 56
2019-04-04 04:00:00 7.2 8 Norte 32 Nordeste 0 -- -- 53
2019-04-04 03:00:00 7.3 7 Norte 21 Norte 0 -- -- 53
2019-04-04 02:00:00 7.9 12 Norte 32 Noroeste 0 -- -- 59
2019-04-04 01:00:00 8.6 16 Norte 30 Norte 0 -- -- 61
2019-04-04 00:00:00 9.3 14 Noroeste 30 Noroeste 0 -- -- 59
2019-04-03 23:00:00 10.2 11 Noroeste 24 Oeste 0 -- -- 58
2019-04-03 22:00:00 11.1 9 Noroeste 22 Noroeste 0 -- -- 54
2019-04-03 21:00:00 12.6 8 Noroeste 24 Norte 0 -- -- 54
2019-04-03 20:00:00 14.7 13 Noroeste 25 Noroeste 0 -- -- 49
2019-04-03 19:00:00 16.2 13 Noroeste 34 Oeste 0 -- -- 46
2019-04-03 18:00:00 17 14 Noroeste 30 Noroeste 0 -- -- 43
2019-04-03 17:00:00 17.1 15 Noroeste 33 Noroeste 0 -- -- 41
2019-04-03 16:00:00 18.5 13 Noroeste 32 Noroeste 0 -- -- 38
2019-04-03 15:00:00 19.1 10 Oeste 33 Noroeste 0 -- -- 35
2019-04-03 14:00:00 19.1 11 Oeste 23 Sudoeste 0 -- -- 41
2019-04-03 13:00:00 18.5 9 Oeste 23 Oeste 0 -- -- 42
2019-04-03 12:00:00 17.3 10 Oeste 21 Noroeste 0 -- -- 41
2019-04-03 11:00:00 14.3 8 Oeste 16 Oeste 0 -- -- 50
2019-04-03 10:00:00 10.2 8 Oeste 13 Oeste 0 -- -- 61
2019-04-03 09:00:00 7.8 3 Oeste 10 Oeste 0 -- -- 71
2019-04-03 08:00:00 8.1 3 Noroeste 14 Oeste 0 -- -- 78
2019-04-03 07:00:00 8.7 5 Oeste 12 Oeste 0 -- -- 72
2019-04-03 06:00:00 9.3 5 Oeste 13 Oeste 0 -- -- 81
2019-04-03 05:00:00 9.1 7 Oeste 13 Oeste 0 -- -- 87
2019-04-03 04:00:00 8.7 2 Noroeste 7 Oeste 0 -- -- 86
2019-04-03 03:00:00 9.8 2 Noroeste 12 Noroeste 0 -- -- 80
2019-04-03 02:00:00 11 5 Noroeste 14 Noroeste 0 -- -- 76
2019-04-03 01:00:00 11.8 7 Oeste 17 Oeste 0 -- -- 74
2019-04-03 00:00:00 11.9 9 Oeste 15 Oeste 0 -- -- 71
2019-04-02 23:00:00 12.5 6 Noroeste 12 Noroeste 0 -- -- 68
2019-04-02 22:00:00 13.8 4 Noroeste 10 Noroeste 0 -- -- 62
2019-04-02 21:00:00 15.9 4 Oeste 16 Oeste 0 -- -- 55
2019-04-02 20:00:00 18.3 9 Noroeste 17 Oeste 0 -- -- 46
2019-04-02 19:00:00 20 9 Noroeste 18 Oeste 0 -- -- 40
2019-04-02 18:00:00 20.1 7 Oeste 15 Noroeste 0 -- -- 41
2019-04-02 17:00:00 18.7 5 Noroeste 15 Nordeste 0 -- -- 43
2019-04-02 16:00:00 18.3 4 Oeste 15 Oeste 0 -- -- 45
2019-04-02 15:00:00 19.8 6 Noroeste 14 Oeste 0 -- -- 50
2019-04-02 14:00:00 19.2 4 Sudeste 11 Noroeste 0 -- -- 54
2019-04-02 13:00:00 19.3 5 Este 17 Este 0 -- -- 56
2019-04-02 12:00:00 16.3 4 Este 11 Sudeste 0 -- -- 63
2019-04-02 11:00:00 13.5 3 Sudeste 9 Sudeste 0 -- -- 78
2019-04-02 10:00:00 8.9 0 Calma 3 Sur 0 -- -- 98
2019-04-02 09:00:00 6.4 0 Calma 4 Oeste 0 -- -- 98
2019-04-02 08:00:00 5.9 0 Calma 5 Oeste 0 -- -- 96
2019-04-02 07:00:00 5.9 3 Oeste 7 Oeste 0 -- -- 96
2019-04-02 06:00:00 6.1 2 Noroeste 4 Noroeste 0 -- -- 93
2019-04-02 05:00:00 6.7 0 Calma 2 Este 0 -- -- 93
2019-04-02 04:00:00 7.3 0 Calma 5 Noroeste 0 -- -- 91
2019-04-02 03:00:00 8.3 2 Noroeste 4 Noroeste 0 -- -- 90
2019-04-02 02:00:00 9.3 0 Calma 4 Noroeste 0 -- -- 91
2019-04-02 01:00:00 10 0 Calma 4 Noroeste 0 -- -- 91
2019-04-02 00:00:00 10.4 0 Calma 2 Noroeste 0 -- -- 91
2019-04-01 23:00:00 10.6 0 Calma 11 Noroeste 0 -- -- 90
2019-04-01 22:00:00 11 5 Noroeste 10 Oeste 0 -- -- 87
2019-04-01 21:00:00 11.3 3 Norte 7 Oeste 0 -- -- 87
2019-04-01 20:00:00 11.9 5 Oeste 13 Oeste 0 -- -- 84
2019-04-01 19:00:00 12.4 9 Oeste 16 Sudoeste 0.4 -- -- 84
2019-04-01 18:00:00 13.1 4 Sudoeste 16 Sur 1.2 -- -- 85
2019-04-01 17:00:00 13.9 6 Sur 24 Sudeste 0.2 -- -- 73
2019-04-01 16:00:00 16.6 10 Sudeste 24 Este 0 -- -- 66
2019-04-01 15:00:00 18.8 4 Sudeste 16 Sudeste 0 -- -- 52
2019-04-01 14:00:00 15.8 3 Este 11 Este 0 -- -- 66
2019-04-01 13:00:00 14.9 4 Este 13 Sudeste 0 -- -- 68
2019-04-01 12:00:00 13.3 5 Sudeste 14 Este 0 -- -- 77
2019-04-01 11:00:00 12.8 3 Sudeste 9 Sudeste 0 -- -- 83
2019-04-01 10:00:00 10.6 2 Sur 7 Este 0 -- -- 94
2019-04-01 09:00:00 9.5 2 Sudeste 6 Este 0 -- -- 95
2019-04-01 08:00:00 9.6 0 Calma 5 Sur 0 -- -- 91
2019-04-01 07:00:00 10 3 Sur 9 Sudeste 0 -- -- 94
2019-04-01 06:00:00 10.1 0 Calma 9 Sudeste 0 -- -- 89
2019-04-01 05:00:00 10.6 0 Calma 9 Sudeste 0 -- -- 93
2019-04-01 04:00:00 10.3 2 Sudeste 10 Sudeste 0 -- -- 93
2019-04-01 03:00:00 10.1 3 Sudeste 9 Este 0 -- -- 94
2019-04-01 02:00:00 9.9 0 Calma 4 Norte 0 -- -- 90
2019-04-01 01:00:00 10.7 0 Calma 2 Noroeste 0 -- -- 87
2019-04-01 00:00:00 11.8 0 Calma 5 Oeste 0 -- -- 85
2019-03-31 23:00:00 12.3 0 Calma 5 Sudoeste 0 -- -- 83
2019-03-31 22:00:00 12.5 5 Oeste 9 Oeste 0 -- -- 83
2019-03-31 21:00:00 13.2 0 Calma 4 Este 0 -- -- 75
2019-03-31 20:00:00 14.9 3 Este 7 Sudeste 0 -- -- 70
2019-03-31 19:00:00 15.9 2 Sur 11 Este 0 -- -- 68
2019-03-31 18:00:00 16 3 Norte 14 Noroeste 0.8 -- -- 62
2019-03-31 17:00:00 15.6 6 Norte 14 Norte 0 -- -- 64
2019-03-31 16:00:00 17.3 3 Sudoeste 11 Noroeste 0 -- -- 58
2019-03-31 15:00:00 16.7 4 Este 12 Este 0.2 -- -- 61
2019-03-31 14:00:00 15.7 2 Sur 14 Oeste 0 -- -- 76
2019-03-31 13:00:00 17.6 4 Noroeste 12 Oeste 0 -- -- 56
2019-03-31 12:00:00 17.4 3 Nordeste 9 Este 0 -- -- 58
2019-03-31 11:00:00 13.9 2 Oeste 9 Noroeste 0 -- -- 72
2019-03-31 10:00:00 10.6 0 Calma 2 Noroeste 0 -- -- 86
2019-03-31 09:00:00 9.1 0 Calma 2 Norte 0 -- -- 91
2019-03-31 08:00:00 8.3 0 Calma 6 Sudeste 0 -- -- 91
2019-03-31 07:00:00 8.8 0 Calma 6 Noroeste 0 -- -- 87
2019-03-31 06:00:00 9 3 Noroeste 5 Noroeste 0 -- -- 87
2019-03-31 05:00:00 9 0 Calma 5 Noroeste 0 -- -- 82
2019-03-31 03:00:00 11.3 0 Calma 10 Sudeste 0 -- -- 77
2019-03-31 01:00:00 11.5 2 Sudeste 6 Noroeste 0 -- -- 78
2019-03-31 00:00:00 12.1 4 Noroeste 16 Oeste 0 -- -- 73
2019-03-30 23:00:00 12.2 2 Oeste 10 Noroeste 0 -- -- 73
2019-03-30 22:00:00 13.4 8 Oeste 19 Oeste 0 -- -- 72
2019-03-30 21:00:00 14.4 5 Sur 18 Sudeste 0 -- -- 57
2019-03-30 20:00:00 15.4 0 Calma 14 Sudeste 0 -- -- 54
2019-03-30 19:00:00 17.7 5 Sur 21 Este 0 -- -- 48
2019-03-30 18:00:00 19.7 5 Sudeste 19 Este 0 -- -- 42
2019-03-30 17:00:00 20.5 5 Sudeste 20 Sudeste 0 -- -- 40
2019-03-30 16:00:00 20.9 4 Sudeste 19 Este 0 -- -- 40
2019-03-30 15:00:00 20.7 5 Nordeste 16 Este 0 -- -- 41
2019-03-30 14:00:00 21.3 4 Sudeste 22 Este 0 -- -- 41
2019-03-30 13:00:00 20 6 Sudeste 17 Este 0 -- -- 44
2019-03-30 12:00:00 18.9 8 Este 21 Este 0 -- -- 47
2019-03-30 11:00:00 17 6 Sudeste 22 Este 0 -- -- 55
2019-03-30 10:00:00 13.6 9 Sudeste 22 Este 0 -- -- 65
2019-03-30 09:00:00 9.9 5 Este 12 Este 0 -- -- 79
2019-03-30 08:00:00 7.7 4 Este 13 Este 0 -- -- 87
2019-03-30 07:00:00 7.4 4 Este 9 Este 0 -- -- 88
2019-03-30 06:00:00 7.2 3 Nordeste 9 Este 0 -- -- 87
2019-03-30 05:00:00 7.4 3 Este 9 Este 0 -- -- 84
2019-03-30 04:00:00 7.8 2 Este 8 Este 0 -- -- 80
2019-03-30 03:00:00 8.9 3 Este 11 Este 0 -- -- 75
2019-03-30 02:00:00 9.2 3 Este 9 Este 0 -- -- 73
2019-03-30 01:00:00 8.8 0 Calma 3 Noroeste 0 -- -- 77
2019-03-30 00:00:00 9.1 0 Calma 3 Noroeste 0 -- -- 76
2019-03-29 23:00:00 10.5 0 Calma 8 Sudeste 0 -- -- 67
2019-03-29 22:00:00 11.8 0 Calma 6 Sudeste 0 -- -- 60
2019-03-29 21:00:00 13.1 0 Calma 4 Sudeste 0 -- -- 57
2019-03-29 20:00:00 14.8 0 Calma 11 Sudeste 0 -- -- 48
2019-03-29 19:00:00 16.8 3 Sudeste 17 Sudeste 0 -- -- 41
2019-03-29 18:00:00 18.8 5 Sudeste 18 Este 0 -- -- 37
2019-03-29 17:00:00 19.9 8 Este 18 Este 0 -- -- 33
2019-03-29 16:00:00 19.7 5 Sudeste 19 Este 0 -- -- 35
2019-03-29 15:00:00 19.6 6 Este 17 Sudeste 0 -- -- 36
2019-03-29 14:00:00 19.9 9 Este 21 Este 0 -- -- 38
2019-03-29 13:00:00 18.8 6 Sudeste 21 Este 0 -- -- 38
2019-03-29 12:00:00 17.6 7 Sudeste 23 Sudeste 0 -- -- 40
2019-03-29 11:00:00 15.6 9 Sudeste 26 Este 0 -- -- 45
2019-03-29 10:00:00 12.4 13 Este 30 Este 0 -- -- 49
2019-03-29 09:00:00 8.9 8 Este 19 Este 0 -- -- 57
2019-03-29 08:00:00 6.2 5 Este 16 Este 0 -- -- 63
2019-03-29 07:00:00 6.2 4 Este 14 Este 0 -- -- 67
2019-03-29 06:00:00 5.7 5 Nordeste 9 Este 0 -- -- 72
2019-03-29 05:00:00 5.9 3 Este 12 Nordeste 0 -- -- 74
2019-03-29 04:00:00 6 3 Este 13 Este 0 -- -- 76
2019-03-29 03:00:00 6.4 3 Nordeste 14 Este 0 -- -- 73
2019-03-29 02:00:00 5.7 3 Nordeste 9 Este 0 -- -- 63
2019-03-29 01:00:00 5.5 2 Nordeste 6 Este 0 -- -- 60
2019-03-29 00:00:00 5.4 0 Calma 3 Noroeste 0 -- -- 62
2019-03-28 23:00:00 6.2 0 Calma 3 Oeste 0 -- -- 62
2019-03-28 22:00:00 7.4 3 Noroeste 6 Noroeste 0 -- -- 56
2019-03-28 21:00:00 9.8 0 Calma 2 Sudeste 0 -- -- 51
2019-03-28 20:00:00 12.9 0 Calma 17 Este 0 -- -- 42
2019-03-28 19:00:00 15.2 5 Sudeste 24 Sudeste 0 -- -- 38
2019-03-28 18:00:00 17 9 Sudeste 23 Sudeste 0 -- -- 33
2019-03-28 17:00:00 17.9 10 Sudeste 28 Este 0 -- -- 37
2019-03-28 16:00:00 17.7 7 Sudeste 26 Este 0 -- -- 36
2019-03-28 15:00:00 17.3 9 Este 27 Este 0 -- -- 40
2019-03-28 14:00:00 17.7 9 Sudeste 27 Sudeste 0 -- -- 38
2019-03-28 13:00:00 16.9 12 Este 33 Este 0 -- -- 38
2019-03-28 12:00:00 15.4 15 Este 33 Este 0 -- -- 51
2019-03-28 11:00:00 14.7 14 Este 27 Este 0 -- -- 54
2019-03-28 10:00:00 12 12 Este 26 Este 0 -- -- 65
2019-03-28 09:00:00 8.2 8 Este 16 Este 0 -- -- 80
2019-03-28 08:00:00 4.7 0 Calma 7 Este 0 -- -- 92
2019-03-28 07:00:00 4.4 0 Calma 6 Este 0 -- -- 86
2019-03-28 06:00:00 3.8 0 Calma 2 Este 0 -- -- 88
2019-03-28 05:00:00 3.7 2 Noroeste 2 Noroeste 0 -- -- 84
2019-03-28 04:00:00 3.9 0 Calma 2 Noroeste 0 -- -- 80
2019-03-28 03:00:00 4.3 0 Calma 4 Noroeste 0 -- -- 79
2019-03-28 02:00:00 4.7 0 Calma 3 Noroeste 0 -- -- 74
2019-03-28 01:00:00 5.7 0 Calma 4 Noroeste 0 -- -- 68
2019-03-28 00:00:00 7.5 0 Calma 8 Nordeste 0 -- -- 60
2019-03-27 23:00:00 9.1 4 Sur 18 Sur 0 -- -- 54
2019-03-27 22:00:00 8.4 2 Noroeste 3 Noroeste 0 -- -- 54
2019-03-27 21:00:00 10.3 0 Calma 2 Noroeste 0 -- -- 48
2019-03-27 20:00:00 13.5 2 Noroeste 10 Sudeste 0 -- -- 41
2019-03-27 19:00:00 16.4 6 Sudeste 18 Sudeste 0 -- -- 31
2019-03-27 18:00:00 19.4 5 Sudeste 17 Sudeste 0 -- -- 26
2019-03-27 17:00:00 20.4 9 Este 33 Este 0 -- -- 24
2019-03-27 16:00:00 20 9 Este 24 Sudeste 0 -- -- 24
2019-03-27 15:00:00 19.7 10 Este 28 Este 0 -- -- 27
2019-03-27 14:00:00 19.8 12 Este 28 Este 0 -- -- 26
2019-03-27 13:00:00 19 6 Este 27 Este 0 -- -- 33
2019-03-27 12:00:00 17.8 7 Este 22 Sudeste 0 -- -- 35
2019-03-27 11:00:00 15.9 13 Este 27 Este 0 -- -- 44
2019-03-27 10:00:00 13.4 12 Este 25 Este 0 -- -- 63
2019-03-27 09:00:00 9.3 8 Este 13 Este 0 -- -- 81
2019-03-27 08:00:00 7.2 2 Sudeste 12 Este 0 -- -- 85
2019-03-27 07:00:00 6.9 2 Sudeste 8 Sudeste 0 -- -- 89
2019-03-27 06:00:00 7.5 2 Sudeste 5 Sudeste 0 -- -- 87
2019-03-27 05:00:00 8.3 3 Este 10 Este 0 -- -- 86
2019-03-27 04:00:00 8.9 3 Este 10 Nordeste 0 -- -- 82
2019-03-27 03:00:00 8.4 4 Nordeste 8 Este 0 -- -- 78
2019-03-27 02:00:00 8.8 3 Noroeste 6 Noroeste 0 -- -- 74
2019-03-27 01:00:00 10.4 3 Noroeste 9 Nordeste 0 -- -- 67
2019-03-27 00:00:00 11.4 4 Este 10 Este 0 -- -- 63
2019-03-26 23:00:00 11.4 0 Calma 6 Este 0 -- -- 66
2019-03-26 22:00:00 12.4 0 Calma 3 Noroeste 0 -- -- 65
2019-03-26 21:00:00 14.3 0 Calma 5 Noroeste 0 -- -- 58
2019-03-26 20:00:00 17.2 0 Calma 11 Sudeste 0 -- -- 45
2019-03-26 19:00:00 19.6 4 Sur 18 Sudeste 0 -- -- 40
2019-03-26 18:00:00 20.9 10 Sudeste 24 Este 0 -- -- 36
2019-03-26 17:00:00 22.1 10 Sudeste 27 Sudeste 0 -- -- 34
2019-03-26 16:00:00 22.6 11 Sudeste 31 Sudeste 0 -- -- 31
2019-03-26 15:00:00 22.8 10 Sudeste 35 Sudeste 0 -- -- 30
2019-03-26 14:00:00 22.6 15 Sudeste 37 Este 0 -- -- 32
2019-03-26 13:00:00 21 14 Este 28 Este 0 -- -- 32
2019-03-26 12:00:00 19.9 15 Este 31 Este 0 -- -- 36
2019-03-26 11:00:00 17.8 14 Este 26 Este 0 -- -- 41
2019-03-26 10:00:00 14.5 7 Este 14 Este 0 -- -- 55
2019-03-26 09:00:00 12 2 Sudeste 12 Nordeste 0 -- -- 67
2019-03-26 08:00:00 10.5 3 Nordeste 9 Sudeste 0 -- -- 65
2019-03-26 07:00:00 10.3 3 Sudeste 16 Sudeste 0 -- -- 69
2019-03-26 06:00:00 9.8 4 Nordeste 12 Este 0 -- -- 72
2019-03-26 05:00:00 8.9 0 Calma 4 Nordeste 0 -- -- 77
2019-03-26 04:00:00 9.4 3 Nordeste 7 Norte 0 -- -- 73
2019-03-26 03:00:00 9.9 2 Nordeste 8 Nordeste 0 -- -- 69
2019-03-26 02:00:00 9.4 3 Nordeste 8 Este 0 -- -- 68
2019-03-26 01:00:00 10.5 2 Este 8 Este 0 -- -- 63
2019-03-26 00:00:00 9.8 0 Calma 4 Sudeste 0 -- -- 64
2019-03-25 23:00:00 10.9 0 Calma 4 Norte 0 -- -- 60
2019-03-25 22:00:00 11.9 2 Noroeste 5 Noroeste 0 -- -- 58
2019-03-25 21:00:00 13.3 2 Noroeste 5 Noroeste 0 -- -- 54
2019-03-25 20:00:00 16.4 0 Calma 12 Sudeste 0 -- -- 47
2019-03-25 19:00:00 19 5 Sudeste 22 Este 0 -- -- 38
2019-03-25 18:00:00 20.7 9 Sudeste 28 Sudeste 0 -- -- 34
2019-03-25 17:00:00 21.6 13 Este 30 Sudeste 0 -- -- 31
2019-03-25 16:00:00 21.4 14 Este 37 Sudeste 0 -- -- 31
2019-03-25 15:00:00 21.6 10 Este 34 Este 0 -- -- 32
2019-03-25 14:00:00 21.1 16 Este 33 Sudeste 0 -- -- 35
2019-03-25 13:00:00 20.5 10 Este 29 Este 0 -- -- 39
2019-03-25 12:00:00 19.7 13 Este 29 Este 0 -- -- 39
2019-03-25 11:00:00 18.5 7 Este 29 Este 0 -- -- 42
2019-03-25 10:00:00 15.7 7 Este 15 Nordeste 0 -- -- 54
2019-03-25 09:00:00 11.1 0 Calma 7 Este 0 -- -- 71
2019-03-25 08:00:00 7.7 0 Calma 8 Noroeste 0 -- -- 82
2019-03-25 07:00:00 7.6 3 Noroeste 6 Norte 0 -- -- 81
2019-03-25 06:00:00 6.6 2 Norte 5 Noroeste 0 -- -- 89
2019-03-25 05:00:00 6.5 0 Calma 5 Noroeste 0 -- -- 90
2019-03-25 04:00:00 6.6 0 Calma 4 Noroeste 0 -- -- 88
2019-03-25 03:00:00 6.9 0 Calma 3 Sudoeste 0 -- -- 86
2019-03-25 02:00:00 7.4 0 Calma 3 Noroeste 0 -- -- 85
2019-03-25 01:00:00 7.8 0 Calma 4 Noroeste 0 -- -- 84
2019-03-25 00:00:00 8.5 0 Calma 4 Noroeste 0 -- -- 82
2019-03-24 23:00:00 9.6 0 Calma 3 Noroeste 0 -- -- 77
2019-03-24 22:00:00 11.1 0 Calma 5 Norte 0 -- -- 71
2019-03-24 21:00:00 12.7 0 Calma 9 Sudeste 0 -- -- 62
2019-03-24 20:00:00 14.5 2 Sur 17 Sudeste 0 -- -- 56
2019-03-24 19:00:00 16.7 8 Sudeste 27 Este 0 -- -- 48
2019-03-24 18:00:00 18.6 10 Sudeste 27 Sudeste 0 -- -- 43
2019-03-24 17:00:00 19.7 10 Sudeste 27 Sudeste 0 -- -- 43
2019-03-24 16:00:00 19.3 13 Sudeste 34 Este 0 -- -- 42
2019-03-24 15:00:00 19.4 14 Sudeste 34 Sudeste 0 -- -- 41
2019-03-24 14:00:00 19.2 15 Sudeste 39 Este 0 -- -- 43
2019-03-24 13:00:00 18.8 14 Sudeste 35 Este 0 -- -- 45
2019-03-24 12:00:00 17.6 11 Este 30 Sudeste 0 -- -- 45
2019-03-24 11:00:00 16.4 13 Este 29 Este 0 -- -- 50
2019-03-24 10:00:00 13.8 12 Este 22 Este 0 -- -- 57
2019-03-24 09:00:00 9.8 4 Este 10 Nordeste 0 -- -- 71
2019-03-24 08:00:00 7 3 Este 9 Este 0 -- -- 80
2019-03-24 07:00:00 6.9 2 Sudeste 8 Este 0 -- -- 80
2019-03-24 06:00:00 7.2 3 Este 10 Este 0 -- -- 79
2019-03-24 05:00:00 7.2 2 Este 10 Este 0 -- -- 79
2019-03-24 04:00:00 7.5 0 Calma 8 Sudeste 0 -- -- 78
2019-03-24 03:00:00 7.9 2 Sudeste 12 Este 0 -- -- 77
2019-03-24 02:00:00 7.5 4 Este 8 Este 0 -- -- 80
2019-03-24 01:00:00 7.9 0 Calma 9 Nordeste 0 -- -- 77
2019-03-24 00:00:00 9 2 Este 8 Nordeste 0 -- -- 73
2019-03-23 23:00:00 10 0 Calma 9 Este 0 -- -- 69
2019-03-23 22:00:00 10.6 4 Este 12 Este 0 -- -- 67
2019-03-23 21:00:00 10.6 2 Sudeste 7 Sudeste 0 -- -- 67
2019-03-23 20:00:00 13 2 Noroeste 9 Sudeste 0 -- -- 60
2019-03-23 19:00:00 15.5 4 Sudeste 18 Sudeste 0 -- -- 50
2019-03-23 18:00:00 17.3 7 Sudeste 21 Sudeste 0 -- -- 45
2019-03-23 17:00:00 18.7 9 Sudeste 30 Sudeste 0 -- -- 40
2019-03-23 16:00:00 18.8 11 Sudeste 37 Este 0 -- -- 40
2019-03-23 15:00:00 19.7 13 Sudeste 34 Sudeste 0 -- -- 37
2019-03-23 14:00:00 19.8 13 Sudeste 35 Sudeste 0 -- -- 38
2019-03-23 13:00:00 19.2 17 Este 34 Sudeste 0 -- -- 35
2019-03-23 12:00:00 18.3 16 Sudeste 36 Este 0 -- -- 39
2019-03-23 11:00:00 16.8 19 Este 38 Sudeste 0 -- -- 42
2019-03-23 10:00:00 14.5 16 Este 32 Este 0 -- -- 49
2019-03-23 09:00:00 10.2 6 Este 16 Este 0 -- -- 65
2019-03-23 08:00:00 7.3 2 Noroeste 8 Nordeste 0 -- -- 74
2019-03-23 07:00:00 6.2 3 Nordeste 8 Nordeste 0 -- -- 80
2019-03-23 06:00:00 4.9 0 Calma 5 Norte 0 -- -- 86
2019-03-23 05:00:00 4.7 3 Norte 6 Este 0 -- -- 83
2019-03-23 04:00:00 4.7 0 Calma 6 Nordeste 0 -- -- 79
2019-03-23 03:00:00 4.7 0 Calma 4 Noroeste 0 -- -- 76
2019-03-23 02:00:00 5.2 2 Noroeste 4 Sudeste 0 -- -- 69
2019-03-23 01:00:00 5.9 0 Calma 2 Este 0 -- -- 69
2019-03-23 00:00:00 6.4 0 Calma 5 Noroeste 0 -- -- 67
2019-03-22 23:00:00 6.9 0 Calma 2 Noroeste 0 -- -- 65
2019-03-22 22:00:00 7.8 2 Noroeste 5 Noroeste 0 -- -- 61
2019-03-22 21:00:00 9.6 0 Calma 4 Noroeste 0 -- -- 54
2019-03-22 20:00:00 12.8 0 Calma 8 Sur 0 -- -- 45
2019-03-22 19:00:00 15.9 4 Este 18 Este 0 -- -- 35
2019-03-22 18:00:00 17.4 5 Este 22 Sudeste 0 -- -- 31
2019-03-22 17:00:00 18.6 10 Este 27 Este 0 -- -- 30
2019-03-22 16:00:00 18.3 6 Nordeste 22 Este 0 -- -- 32
2019-03-22 15:00:00 18.4 6 Este 19 Este 0 -- -- 37
2019-03-22 14:00:00 17.8 10 Sudeste 24 Sudeste 0 -- -- 35
2019-03-22 13:00:00 16.7 7 Este 24 Sudeste 0 -- -- 37
2019-03-22 12:00:00 15.8 10 Nordeste 21 Este 0 -- -- 41
2019-03-22 11:00:00 14.6 5 Este 17 Este 0 -- -- 55
2019-03-22 10:00:00 11.4 6 Este 13 Este 0 -- -- 63
2019-03-22 09:00:00 6.9 4 Este 10 Sudeste 0 -- -- 84
2019-03-22 08:00:00 2.5 0 Calma 0 Calma 0 -- -- 91
2019-03-22 07:00:00 2.2 0 Calma 0 Calma 0 -- -- 89
2019-03-22 06:00:00 2.4 0 Calma 2 Noroeste 0 -- -- 86
2019-03-22 05:00:00 2.6 0 Calma 3 Noroeste 0 -- -- 85
2019-03-22 04:00:00 2.5 4 Noroeste 5 Noroeste 0 -- -- 80
2019-03-22 03:00:00 3.2 0 Calma 2 Noroeste 0 -- -- 73
2019-03-22 02:00:00 3.9 0 Calma 3 Noroeste 0 -- -- 67
2019-03-22 01:00:00 4.5 3 Noroeste 6 Noroeste 0 -- -- 61
2019-03-22 00:00:00 5.3 0 Calma 7 Noroeste 0 -- -- 61
2019-03-21 23:00:00 5.8 0 Calma 4 Noroeste 0 -- -- 61
2019-03-21 22:00:00 6.9 2 Oeste 4 Noroeste 0 -- -- 55
2019-03-21 21:00:00 8.9 2 Noroeste 8 Sudoeste 0 -- -- 49
2019-03-21 20:00:00 11.2 0 Calma 5 Noroeste 0 -- -- 43
2019-03-21 19:00:00 14.1 3 Sudeste 15 Sudeste 0 -- -- 31
2019-03-21 18:00:00 16 5 Este 15 Sudeste 0 -- -- 28
2019-03-21 17:00:00 17 9 Este 24 Este 0 -- -- 28
2019-03-21 16:00:00 16.7 10 Este 30 Sudeste 0 -- -- 27
2019-03-21 15:00:00 16.7 8 Este 27 Este 0 -- -- 31
2019-03-21 14:00:00 16.6 12 Este 33 Este 0 -- -- 31
2019-03-21 13:00:00 16.1 14 Este 33 Este 0 -- -- 32
2019-03-21 12:00:00 15.8 12 Este 24 Sudeste 0 -- -- 39
2019-03-21 11:00:00 14.5 8 Este 18 Este 0 -- -- 52
2019-03-21 10:00:00 11 4 Este 12 Este 0 -- -- 66
2019-03-21 09:00:00 6.6 0 Calma 5 Sudeste 0 -- -- 86
2019-03-21 08:00:00 3.1 0 Calma 2 Sudoeste 0 -- -- 94
2019-03-21 07:00:00 3 0 Calma 2 Norte 0 -- -- 90
2019-03-21 06:00:00 3 0 Calma 2 Noroeste 0 -- -- 90
2019-03-21 05:00:00 3.3 0 Calma 2 Oeste 0 -- -- 86
2019-03-21 04:00:00 3.9 0 Calma 2 Noroeste 0 -- -- 83
2019-03-21 03:00:00 4.4 0 Calma 2 Noroeste 0 -- -- 81
2019-03-21 02:00:00 5.3 0 Calma 2 Este 0 -- -- 77
2019-03-21 01:00:00 5.6 0 Calma 4 Noroeste 0 -- -- 75
2019-03-21 00:00:00 6.5 3 Noroeste 6 Noroeste 0 -- -- 66